sensor_id;sensor_type;location;lat;lon;timestamp;pressure;altitude;pressure_sealevel;temperature;humidity
62847;BME280;49477;35.676;139.586;2023-08-17T00:01:26;100318.93;;;34.77;41.83
62847;BME280;49477;35.676;139.586;2023-08-17T00:03:56;100318.99;;;34.52;42.01
62847;BME280;49477;35.676;139.586;2023-08-17T00:06:25;100317.85;;;34.60;42.31
62847;BME280;49477;35.676;139.586;2023-08-17T00:09:01;100316.28;;;34.64;42.40
62847;BME280;49477;35.676;139.586;2023-08-17T00:11:30;100316.44;;;34.53;42.97
62847;BME280;49477;35.676;139.586;2023-08-17T00:14:00;100314.08;;;34.58;42.48
62847;BME280;49477;35.676;139.586;2023-08-17T00:16:30;100318.32;;;34.80;42.48
62847;BME280;49477;35.676;139.586;2023-08-17T00:19:00;100319.30;;;34.43;42.56
62847;BME280;49477;35.676;139.586;2023-08-17T00:21:29;100319.11;;;35.06;42.06
62847;BME280;49477;35.676;139.586;2023-08-17T00:23:59;100314.09;;;34.14;42.56
62847;BME280;49477;35.676;139.586;2023-08-17T00:26:29;100314.51;;;34.86;41.66
62847;BME280;49477;35.676;139.586;2023-08-17T00:29:00;100312.44;;;34.04;42.33
62847;BME280;49477;35.676;139.586;2023-08-17T00:31:29;100312.68;;;35.20;41.52
62847;BME280;49477;35.676;139.586;2023-08-17T00:33:58;100316.25;;;34.96;41.32
62847;BME280;49477;35.676;139.586;2023-08-17T00:36:27;100321.09;;;34.82;41.26
62847;BME280;49477;35.676;139.586;2023-08-17T00:38:57;100317.85;;;35.14;41.08
62847;BME280;49477;35.676;139.586;2023-08-17T00:41:27;100316.55;;;34.97;41.25
62847;BME280;49477;35.676;139.586;2023-08-17T00:43:57;100315.73;;;35.37;40.72
62847;BME280;49477;35.676;139.586;2023-08-17T00:46:26;100310.38;;;35.63;40.25
62847;BME280;49477;35.676;139.586;2023-08-17T00:48:56;100312.91;;;35.61;39.97
62847;BME280;49477;35.676;139.586;2023-08-17T00:51:26;100314.06;;;35.51;40.00
62847;BME280;49477;35.676;139.586;2023-08-17T00:53:59;100312.62;;;35.63;40.19
62847;BME280;49477;35.676;139.586;2023-08-17T00:56:30;100305.84;;;35.64;39.78
62847;BME280;49477;35.676;139.586;2023-08-17T00:58:59;100300.41;;;35.51;39.48
62847;BME280;49477;35.676;139.586;2023-08-17T01:01:29;100302.75;;;35.92;39.21
62847;BME280;49477;35.676;139.586;2023-08-17T01:03:58;100302.06;;;35.74;39.20
62847;BME280;49477;35.676;139.586;2023-08-17T01:06:27;100296.14;;;35.76;39.55
62847;BME280;49477;35.676;139.586;2023-08-17T01:08:57;100297.00;;;35.92;39.01
62847;BME280;49477;35.676;139.586;2023-08-17T01:11:32;100297.37;;;35.95;38.97
62847;BME280;49477;35.676;139.586;2023-08-17T01:14:10;100296.96;;;36.00;39.00
62847;BME280;49477;35.676;139.586;2023-08-17T01:16:46;100292.45;;;36.01;38.96
62847;BME280;49477;35.676;139.586;2023-08-17T01:19:25;100290.29;;;35.82;38.73
62847;BME280;49477;35.676;139.586;2023-08-17T01:21:58;100286.80;;;36.26;38.92
62847;BME280;49477;35.676;139.586;2023-08-17T01:24:29;100286.20;;;36.34;38.83
62847;BME280;49477;35.676;139.586;2023-08-17T01:26:58;100280.62;;;35.88;38.88
62847;BME280;49477;35.676;139.586;2023-08-17T01:29:27;100282.83;;;36.16;38.81
62847;BME280;49477;35.676;139.586;2023-08-17T01:32:04;100280.42;;;36.03;38.96
62847;BME280;49477;35.676;139.586;2023-08-17T01:34:40;100277.19;;;36.02;39.04
62847;BME280;49477;35.676;139.586;2023-08-17T01:37:15;100275.95;;;35.87;39.29
62847;BME280;49477;35.676;139.586;2023-08-17T01:39:49;100276.50;;;35.52;39.95
62847;BME280;49477;35.676;139.586;2023-08-17T01:42:21;100271.86;;;35.56;39.68
62847;BME280;49477;35.676;139.586;2023-08-17T01:44:51;100265.34;;;35.95;38.98
62847;BME280;49477;35.676;139.586;2023-08-17T01:47:22;100265.11;;;36.14;39.07
62847;BME280;49477;35.676;139.586;2023-08-17T01:49:51;100259.61;;;36.15;39.21
62847;BME280;49477;35.676;139.586;2023-08-17T01:52:20;100256.39;;;35.91;39.87
62847;BME280;49477;35.676;139.586;2023-08-17T01:54:50;100253.16;;;36.19;39.38
62847;BME280;49477;35.676;139.586;2023-08-17T01:57:19;100254.56;;;36.37;39.45
62847;BME280;49477;35.676;139.586;2023-08-17T01:59:48;100252.12;;;36.41;39.42
62847;BME280;49477;35.676;139.586;2023-08-17T02:02:18;100254.54;;;36.01;39.30
62847;BME280;49477;35.676;139.586;2023-08-17T02:04:47;100255.21;;;36.20;39.93
62847;BME280;49477;35.676;139.586;2023-08-17T02:07:17;100255.88;;;36.62;40.30
62847;BME280;49477;35.676;139.586;2023-08-17T02:09:46;100251.94;;;36.44;40.30
62847;BME280;49477;35.676;139.586;2023-08-17T02:12:15;100251.94;;;36.34;40.16
62847;BME280;49477;35.676;139.586;2023-08-17T02:14:44;100246.25;;;36.60;40.26
62847;BME280;49477;35.676;139.586;2023-08-17T02:17:14;100243.71;;;36.68;40.08
62847;BME280;49477;35.676;139.586;2023-08-17T02:19:44;100240.08;;;36.49;39.71
62847;BME280;49477;35.676;139.586;2023-08-17T02:22:13;100236.87;;;36.43;39.46
62847;BME280;49477;35.676;139.586;2023-08-17T02:24:43;100233.33;;;36.61;39.63
62847;BME280;49477;35.676;139.586;2023-08-17T02:27:12;100230.36;;;36.36;39.70
62847;BME280;49477;35.676;139.586;2023-08-17T02:29:42;100227.67;;;36.74;39.39
62847;BME280;49477;35.676;139.586;2023-08-17T02:32:11;100225.33;;;36.66;39.21
62847;BME280;49477;35.676;139.586;2023-08-17T02:34:41;100222.17;;;36.88;39.01
62847;BME280;49477;35.676;139.586;2023-08-17T02:37:10;100223.01;;;36.55;39.02
62847;BME280;49477;35.676;139.586;2023-08-17T02:39:40;100219.56;;;36.65;38.96
62847;BME280;49477;35.676;139.586;2023-08-17T02:42:11;100220.32;;;37.06;39.05
62847;BME280;49477;35.676;139.586;2023-08-17T02:44:41;100215.37;;;36.67;38.91
62847;BME280;49477;35.676;139.586;2023-08-17T02:47:15;100221.01;;;36.59;38.83
62847;BME280;49477;35.676;139.586;2023-08-17T02:49:45;100214.02;;;36.72;38.80
62847;BME280;49477;35.676;139.586;2023-08-17T02:52:14;100218.21;;;36.81;38.61
62847;BME280;49477;35.676;139.586;2023-08-17T02:54:44;100219.02;;;36.66;39.07
62847;BME280;49477;35.676;139.586;2023-08-17T02:57:14;100220.22;;;36.95;38.90
62847;BME280;49477;35.676;139.586;2023-08-17T02:59:48;100216.62;;;37.16;38.74
62847;BME280;49477;35.676;139.586;2023-08-17T03:02:18;100224.09;;;36.54;39.11
62847;BME280;49477;35.676;139.586;2023-08-17T03:04:47;100223.18;;;36.69;39.07
62847;BME280;49477;35.676;139.586;2023-08-17T03:07:16;100219.53;;;36.36;39.00
62847;BME280;49477;35.676;139.586;2023-08-17T03:09:46;100221.56;;;36.68;39.20
62847;BME280;49477;35.676;139.586;2023-08-17T03:12:15;100222.69;;;36.99;39.29
62847;BME280;49477;35.676;139.586;2023-08-17T03:14:45;100215.54;;;36.55;39.53
62847;BME280;49477;35.676;139.586;2023-08-17T03:17:14;100219.06;;;36.71;39.39
62847;BME280;49477;35.676;139.586;2023-08-17T03:19:44;100216.36;;;36.68;39.38
62847;BME280;49477;35.676;139.586;2023-08-17T03:22:13;100210.39;;;36.68;39.25
62847;BME280;49477;35.676;139.586;2023-08-17T03:24:43;100213.49;;;36.92;38.94
62847;BME280;49477;35.676;139.586;2023-08-17T03:27:14;100216.97;;;37.05;39.09
62847;BME280;49477;35.676;139.586;2023-08-17T03:29:43;100213.86;;;36.98;38.94
62847;BME280;49477;35.676;139.586;2023-08-17T03:32:18;100211.27;;;37.09;39.02
62847;BME280;49477;35.676;139.586;2023-08-17T03:34:48;100210.84;;;36.98;38.81
62847;BME280;49477;35.676;139.586;2023-08-17T03:37:17;100207.19;;;37.01;38.71
62847;BME280;49477;35.676;139.586;2023-08-17T03:39:47;100205.87;;;37.12;38.26
62847;BME280;49477;35.676;139.586;2023-08-17T03:42:16;100205.81;;;36.94;38.58
62847;BME280;49477;35.676;139.586;2023-08-17T03:44:46;100203.52;;;36.97;38.57
62847;BME280;49477;35.676;139.586;2023-08-17T03:47:15;100201.25;;;37.02;38.53
62847;BME280;49477;35.676;139.586;2023-08-17T03:49:46;100202.07;;;37.08;38.54
62847;BME280;49477;35.676;139.586;2023-08-17T03:52:16;100196.92;;;36.74;38.18
62847;BME280;49477;35.676;139.586;2023-08-17T03:54:46;100198.84;;;36.85;38.40
62847;BME280;49477;35.676;139.586;2023-08-17T03:57:15;100202.96;;;36.89;38.72
62847;BME280;49477;35.676;139.586;2023-08-17T03:59:45;100199.92;;;36.85;38.77
62847;BME280;49477;35.676;139.586;2023-08-17T04:02:15;100197.35;;;37.10;38.43
62847;BME280;49477;35.676;139.586;2023-08-17T04:04:46;100198.37;;;37.12;38.22
62847;BME280;49477;35.676;139.586;2023-08-17T04:07:21;100193.28;;;37.14;38.15
62847;BME280;49477;35.676;139.586;2023-08-17T04:09:50;100197.55;;;37.18;38.24
62847;BME280;49477;35.676;139.586;2023-08-17T04:12:20;100195.42;;;37.22;38.03
62847;BME280;49477;35.676;139.586;2023-08-17T04:14:49;100193.64;;;37.24;38.07
62847;BME280;49477;35.676;139.586;2023-08-17T04:17:19;100185.38;;;37.45;37.65
62847;BME280;49477;35.676;139.586;2023-08-17T04:19:50;100189.02;;;36.92;37.51
62847;BME280;49477;35.676;139.586;2023-08-17T04:22:20;100187.16;;;37.11;37.51
62847;BME280;49477;35.676;139.586;2023-08-17T04:24:49;100184.09;;;37.15;37.62
62847;BME280;49477;35.676;139.586;2023-08-17T04:27:19;100174.58;;;37.07;37.28
62847;BME280;49477;35.676;139.586;2023-08-17T04:29:48;100175.95;;;37.21;37.43
62847;BME280;49477;35.676;139.586;2023-08-17T04:32:17;100173.69;;;37.18;37.82
62847;BME280;49477;35.676;139.586;2023-08-17T04:34:50;100173.39;;;37.28;38.03
62847;BME280;49477;35.676;139.586;2023-08-17T04:37:20;100173.21;;;37.14;38.62
62847;BME280;49477;35.676;139.586;2023-08-17T04:39:49;100173.45;;;36.99;38.04
62847;BME280;49477;35.676;139.586;2023-08-17T04:42:19;100165.56;;;37.45;37.72
62847;BME280;49477;35.676;139.586;2023-08-17T04:44:48;100164.58;;;37.36;37.62
62847;BME280;49477;35.676;139.586;2023-08-17T04:47:18;100162.63;;;37.17;37.43
62847;BME280;49477;35.676;139.586;2023-08-17T04:49:47;100161.97;;;37.08;37.51
62847;BME280;49477;35.676;139.586;2023-08-17T04:52:17;100160.28;;;37.40;37.77
62847;BME280;49477;35.676;139.586;2023-08-17T04:54:46;100157.55;;;37.28;37.51
62847;BME280;49477;35.676;139.586;2023-08-17T04:57:16;100164.05;;;37.34;37.50
62847;BME280;49477;35.676;139.586;2023-08-17T04:59:45;100160.24;;;37.59;37.38
62847;BME280;49477;35.676;139.586;2023-08-17T05:02:14;100155.84;;;37.38;37.55
62847;BME280;49477;35.676;139.586;2023-08-17T05:04:45;100155.14;;;37.42;37.70
62847;BME280;49477;35.676;139.586;2023-08-17T05:07:14;100153.93;;;37.01;37.73
62847;BME280;49477;35.676;139.586;2023-08-17T05:09:43;100154.45;;;37.36;37.70
62847;BME280;49477;35.676;139.586;2023-08-17T05:12:13;100153.15;;;37.28;37.47
62847;BME280;49477;35.676;139.586;2023-08-17T05:14:42;100151.06;;;37.57;37.58
62847;BME280;49477;35.676;139.586;2023-08-17T05:17:12;100144.31;;;36.66;37.28
62847;BME280;49477;35.676;139.586;2023-08-17T05:19:41;100144.45;;;37.33;37.62
62847;BME280;49477;35.676;139.586;2023-08-17T05:22:12;100148.45;;;37.10;37.76
62847;BME280;49477;35.676;139.586;2023-08-17T05:24:41;100154.73;;;37.71;37.65
62847;BME280;49477;35.676;139.586;2023-08-17T05:27:11;100149.32;;;37.28;37.53
62847;BME280;49477;35.676;139.586;2023-08-17T05:29:40;100144.44;;;37.68;37.42
62847;BME280;49477;35.676;139.586;2023-08-17T05:32:10;100142.31;;;37.65;37.33
62847;BME280;49477;35.676;139.586;2023-08-17T05:34:40;100143.86;;;37.39;37.63
62847;BME280;49477;35.676;139.586;2023-08-17T05:37:09;100141.34;;;37.31;37.41
62847;BME280;49477;35.676;139.586;2023-08-17T05:39:39;100145.37;;;37.65;37.33
62847;BME280;49477;35.676;139.586;2023-08-17T05:42:08;100150.61;;;37.23;36.94
62847;BME280;49477;35.676;139.586;2023-08-17T05:44:38;100148.54;;;37.36;37.00
62847;BME280;49477;35.676;139.586;2023-08-17T05:47:08;100145.06;;;37.35;36.76
62847;BME280;49477;35.676;139.586;2023-08-17T05:49:37;100144.11;;;37.23;36.98
62847;BME280;49477;35.676;139.586;2023-08-17T05:52:07;100147.22;;;37.41;37.07
62847;BME280;49477;35.676;139.586;2023-08-17T05:54:36;100143.85;;;37.84;37.02
62847;BME280;49477;35.676;139.586;2023-08-17T05:57:05;100141.37;;;37.59;37.32
62847;BME280;49477;35.676;139.586;2023-08-17T05:59:35;100144.39;;;37.66;37.37
62847;BME280;49477;35.676;139.586;2023-08-17T06:02:05;100137.13;;;37.32;37.49
62847;BME280;49477;35.676;139.586;2023-08-17T06:04:34;100138.78;;;37.72;37.30
62847;BME280;49477;35.676;139.586;2023-08-17T06:07:04;100141.80;;;37.43;37.26
62847;BME280;49477;35.676;139.586;2023-08-17T06:09:34;100142.89;;;37.56;37.17
62847;BME280;49477;35.676;139.586;2023-08-17T06:12:03;100145.90;;;37.02;37.12
62847;BME280;49477;35.676;139.586;2023-08-17T06:14:34;100143.15;;;37.24;37.25
62847;BME280;49477;35.676;139.586;2023-08-17T06:17:03;100143.63;;;37.27;37.21
62847;BME280;49477;35.676;139.586;2023-08-17T06:19:33;100143.30;;;37.40;37.32
62847;BME280;49477;35.676;139.586;2023-08-17T06:22:03;100147.41;;;37.38;36.99
62847;BME280;49477;35.676;139.586;2023-08-17T06:24:33;100146.07;;;37.51;37.08
62847;BME280;49477;35.676;139.586;2023-08-17T06:27:02;100143.20;;;37.29;37.19
62847;BME280;49477;35.676;139.586;2023-08-17T06:29:32;100150.93;;;37.97;36.95
62847;BME280;49477;35.676;139.586;2023-08-17T06:32:01;100149.87;;;36.95;36.99
62847;BME280;49477;35.676;139.586;2023-08-17T06:34:31;100146.93;;;38.13;37.05
62847;BME280;49477;35.676;139.586;2023-08-17T06:37:02;100136.19;;;37.92;37.09
62847;BME280;49477;35.676;139.586;2023-08-17T06:39:32;100140.52;;;37.94;37.46
62847;BME280;49477;35.676;139.586;2023-08-17T06:42:02;100136.33;;;37.33;37.58
62847;BME280;49477;35.676;139.586;2023-08-17T06:44:31;100136.51;;;37.95;37.27
62847;BME280;49477;35.676;139.586;2023-08-17T06:47:02;100139.11;;;36.86;37.34
62847;BME280;49477;35.676;139.586;2023-08-17T06:49:32;100136.61;;;37.15;37.36
62847;BME280;49477;35.676;139.586;2023-08-17T06:52:02;100125.95;;;37.27;37.10
62847;BME280;49477;35.676;139.586;2023-08-17T06:54:32;100126.09;;;37.44;37.32
62847;BME280;49477;35.676;139.586;2023-08-17T06:57:01;100124.50;;;37.29;37.82
62847;BME280;49477;35.676;139.586;2023-08-17T06:59:31;100130.07;;;37.80;37.42
62847;BME280;49477;35.676;139.586;2023-08-17T07:02:00;100131.57;;;37.35;37.46
62847;BME280;49477;35.676;139.586;2023-08-17T07:04:29;100132.71;;;37.59;37.27
62847;BME280;49477;35.676;139.586;2023-08-17T07:06:59;100136.19;;;37.62;37.29
62847;BME280;49477;35.676;139.586;2023-08-17T07:09:28;100136.11;;;37.93;37.11
62847;BME280;49477;35.676;139.586;2023-08-17T07:11:57;100139.65;;;37.82;37.30
62847;BME280;49477;35.676;139.586;2023-08-17T07:14:26;100139.56;;;37.41;37.30
62847;BME280;49477;35.676;139.586;2023-08-17T07:17:01;100136.43;;;38.03;37.36
62847;BME280;49477;35.676;139.586;2023-08-17T07:19:31;100140.51;;;37.34;37.03
62847;BME280;49477;35.676;139.586;2023-08-17T07:22:00;100145.15;;;37.79;37.26
62847;BME280;49477;35.676;139.586;2023-08-17T07:24:29;100151.22;;;37.70;37.05
62847;BME280;49477;35.676;139.586;2023-08-17T07:26:58;100147.79;;;36.83;37.07
62847;BME280;49477;35.676;139.586;2023-08-17T07:29:27;100153.72;;;37.11;37.33
62847;BME280;49477;35.676;139.586;2023-08-17T07:31:57;100155.87;;;37.32;37.12
62847;BME280;49477;35.676;139.586;2023-08-17T07:34:26;100160.06;;;37.45;36.90
62847;BME280;49477;35.676;139.586;2023-08-17T07:37:01;100165.86;;;36.89;37.16
62847;BME280;49477;35.676;139.586;2023-08-17T07:39:30;100163.12;;;37.18;37.02
62847;BME280;49477;35.676;139.586;2023-08-17T07:41:59;100167.46;;;36.92;36.93
62847;BME280;49477;35.676;139.586;2023-08-17T07:44:28;100164.98;;;37.15;37.20
62847;BME280;49477;35.676;139.586;2023-08-17T07:46:58;100166.78;;;37.38;37.36
62847;BME280;49477;35.676;139.586;2023-08-17T07:49:28;100165.89;;;37.39;37.45
62847;BME280;49477;35.676;139.586;2023-08-17T07:51:58;100169.62;;;37.88;36.79
62847;BME280;49477;35.676;139.586;2023-08-17T07:54:29;100170.34;;;37.71;37.02
62847;BME280;49477;35.676;139.586;2023-08-17T07:56:59;100168.32;;;37.46;37.13
62847;BME280;49477;35.676;139.586;2023-08-17T07:59:28;100166.60;;;37.55;37.10
62847;BME280;49477;35.676;139.586;2023-08-17T08:01:58;100166.99;;;37.23;37.06
62847;BME280;49477;35.676;139.586;2023-08-17T08:04:28;100171.45;;;37.26;36.87
62847;BME280;49477;35.676;139.586;2023-08-17T08:06:57;100168.78;;;37.65;36.99
62847;BME280;49477;35.676;139.586;2023-08-17T08:09:26;100166.04;;;37.06;37.29
62847;BME280;49477;35.676;139.586;2023-08-17T08:11:56;100163.68;;;37.39;37.35
62847;BME280;49477;35.676;139.586;2023-08-17T08:14:25;100166.17;;;37.15;37.34
62847;BME280;49477;35.676;139.586;2023-08-17T08:16:56;100164.89;;;37.07;37.34
62847;BME280;49477;35.676;139.586;2023-08-17T08:19:25;100166.52;;;37.15;37.46
62847;BME280;49477;35.676;139.586;2023-08-17T08:21:57;100172.18;;;37.20;37.65
62847;BME280;49477;35.676;139.586;2023-08-17T08:24:26;100178.41;;;36.75;37.76
62847;BME280;49477;35.676;139.586;2023-08-17T08:27:02;100180.11;;;37.07;37.68
62847;BME280;49477;35.676;139.586;2023-08-17T08:29:31;100185.79;;;37.02;37.72
62847;BME280;49477;35.676;139.586;2023-08-17T08:32:00;100178.47;;;36.32;38.08
62847;BME280;49477;35.676;139.586;2023-08-17T08:34:30;100187.14;;;36.72;38.05
62847;BME280;49477;35.676;139.586;2023-08-17T08:36:59;100189.68;;;36.43;38.30
62847;BME280;49477;35.676;139.586;2023-08-17T08:39:29;100194.05;;;36.80;38.36
62847;BME280;49477;35.676;139.586;2023-08-17T08:41:59;100198.27;;;36.70;38.14
62847;BME280;49477;35.676;139.586;2023-08-17T08:44:29;100200.48;;;36.85;38.01
62847;BME280;49477;35.676;139.586;2023-08-17T08:46:59;100200.53;;;36.37;38.25
62847;BME280;49477;35.676;139.586;2023-08-17T08:49:32;100197.51;;;36.62;38.25
62847;BME280;49477;35.676;139.586;2023-08-17T08:52:08;100204.21;;;36.21;38.21
62847;BME280;49477;35.676;139.586;2023-08-17T08:54:42;100206.91;;;36.54;38.22
62847;BME280;49477;35.676;139.586;2023-08-17T08:57:14;100210.20;;;36.58;38.34
62847;BME280;49477;35.676;139.586;2023-08-17T08:59:44;100220.11;;;36.65;38.16
62847;BME280;49477;35.676;139.586;2023-08-17T09:02:15;100228.92;;;36.64;38.36
62847;BME280;49477;35.676;139.586;2023-08-17T09:04:45;100234.23;;;36.35;38.55
62847;BME280;49477;35.676;139.586;2023-08-17T09:07:14;100234.17;;;36.61;38.33
62847;BME280;49477;35.676;139.586;2023-08-17T09:09:45;100237.94;;;36.36;38.50
62847;BME280;49477;35.676;139.586;2023-08-17T09:12:14;100239.41;;;35.97;39.33
62847;BME280;49477;35.676;139.586;2023-08-17T09:14:44;100241.66;;;35.74;40.18
62847;BME280;49477;35.676;139.586;2023-08-17T09:17:13;100247.32;;;35.29;40.21
62847;BME280;49477;35.676;139.586;2023-08-17T09:19:47;100251.27;;;35.64;40.19
62847;BME280;49477;35.676;139.586;2023-08-17T09:22:23;100257.20;;;35.35;40.32
62847;BME280;49477;35.676;139.586;2023-08-17T09:24:53;100262.26;;;35.18;40.73
62847;BME280;49477;35.676;139.586;2023-08-17T09:27:23;100266.46;;;35.16;41.23
62847;BME280;49477;35.676;139.586;2023-08-17T09:29:52;100266.21;;;34.76;41.80
62847;BME280;49477;35.676;139.586;2023-08-17T09:32:21;100261.94;;;35.15;41.56
62847;BME280;49477;35.676;139.586;2023-08-17T09:34:50;100261.09;;;34.75;42.13
62847;BME280;49477;35.676;139.586;2023-08-17T09:37:20;100262.10;;;34.82;41.95
62847;BME280;49477;35.676;139.586;2023-08-17T09:39:50;100259.77;;;35.11;41.75
62847;BME280;49477;35.676;139.586;2023-08-17T09:42:19;100264.01;;;34.92;42.05
62847;BME280;49477;35.676;139.586;2023-08-17T09:44:49;100271.49;;;34.67;42.46
62847;BME280;49477;35.676;139.586;2023-08-17T09:47:18;100272.35;;;34.64;42.59
62847;BME280;49477;35.676;139.586;2023-08-17T09:49:50;100275.92;;;34.43;43.09
62847;BME280;49477;35.676;139.586;2023-08-17T09:52:20;100273.83;;;34.66;42.66
62847;BME280;49477;35.676;139.586;2023-08-17T09:54:50;100277.81;;;34.48;42.74
62847;BME280;49477;35.676;139.586;2023-08-17T09:57:21;100278.15;;;34.54;42.64
62847;BME280;49477;35.676;139.586;2023-08-17T09:59:51;100268.96;;;34.93;42.33
62847;BME280;49477;35.676;139.586;2023-08-17T10:02:23;100273.26;;;34.78;42.46
62847;BME280;49477;35.676;139.586;2023-08-17T10:04:56;100273.91;;;35.88;41.50
62847;BME280;49477;35.676;139.586;2023-08-17T10:07:31;100275.33;;;35.66;41.19
62847;BME280;49477;35.676;139.586;2023-08-17T10:10:06;100281.47;;;35.08;41.14
62847;BME280;49477;35.676;139.586;2023-08-17T10:12:40;100277.84;;;35.47;40.96
62847;BME280;49477;35.676;139.586;2023-08-17T10:15:17;100279.13;;;35.31;41.02
62847;BME280;49477;35.676;139.586;2023-08-17T10:17:55;100275.89;;;35.43;41.25
62847;BME280;49477;35.676;139.586;2023-08-17T10:20:30;100278.30;;;35.73;41.10
62847;BME280;49477;35.676;139.586;2023-08-17T10:23:10;100284.25;;;35.09;41.27
62847;BME280;49477;35.676;139.586;2023-08-17T10:25:41;100279.68;;;35.83;41.36
62847;BME280;49477;35.676;139.586;2023-08-17T10:28:12;100285.55;;;35.81;41.16
62847;BME280;49477;35.676;139.586;2023-08-17T10:30:42;100295.55;;;35.66;41.44
62847;BME280;49477;35.676;139.586;2023-08-17T10:33:12;100294.26;;;35.51;41.76
62847;BME280;49477;35.676;139.586;2023-08-17T10:35:42;100299.84;;;35.23;41.84
62847;BME280;49477;35.676;139.586;2023-08-17T10:38:12;100296.96;;;35.49;41.87
62847;BME280;49477;35.676;139.586;2023-08-17T10:40:43;100295.96;;;35.61;41.94
62847;BME280;49477;35.676;139.586;2023-08-17T10:43:13;100300.07;;;35.14;41.85
62847;BME280;49477;35.676;139.586;2023-08-17T10:45:42;100301.85;;;35.55;41.87
62847;BME280;49477;35.676;139.586;2023-08-17T10:48:28;100306.63;;;35.36;41.67
62847;BME280;49477;35.676;139.586;2023-08-17T10:51:04;100303.22;;;35.56;41.74
62847;BME280;49477;35.676;139.586;2023-08-17T10:53:38;100304.36;;;35.26;41.74
62847;BME280;49477;35.676;139.586;2023-08-17T10:56:11;100304.95;;;34.92;41.89
62847;BME280;49477;35.676;139.586;2023-08-17T10:58:43;100311.85;;;35.28;42.07
62847;BME280;49477;35.676;139.586;2023-08-17T11:01:13;100317.19;;;34.90;42.43
62847;BME280;49477;35.676;139.586;2023-08-17T11:03:43;100315.74;;;35.24;42.36
62847;BME280;49477;35.676;139.586;2023-08-17T11:06:19;100319.52;;;34.52;42.57
62847;BME280;49477;35.676;139.586;2023-08-17T11:08:58;100323.20;;;35.17;42.54
62847;BME280;49477;35.676;139.586;2023-08-17T11:11:32;100328.33;;;35.19;42.48
62847;BME280;49477;35.676;139.586;2023-08-17T11:14:01;100326.40;;;34.65;42.37
62847;BME280;49477;35.676;139.586;2023-08-17T11:16:30;100331.94;;;35.17;42.39
62847;BME280;49477;35.676;139.586;2023-08-17T11:19:01;100335.28;;;34.88;42.34
62847;BME280;49477;35.676;139.586;2023-08-17T11:21:31;100342.00;;;35.04;42.32
62847;BME280;49477;35.676;139.586;2023-08-17T11:24:01;100350.58;;;34.55;42.27
62847;BME280;49477;35.676;139.586;2023-08-17T11:26:30;100349.87;;;34.97;42.61
62847;BME280;49477;35.676;139.586;2023-08-17T11:29:01;100353.77;;;35.35;42.57
62847;BME280;49477;35.676;139.586;2023-08-17T11:31:32;100354.04;;;34.92;42.42
62847;BME280;49477;35.676;139.586;2023-08-17T11:34:02;100360.24;;;35.06;42.27
62847;BME280;49477;35.676;139.586;2023-08-17T11:36:32;100361.45;;;35.22;42.45
62847;BME280;49477;35.676;139.586;2023-08-17T11:39:02;100360.70;;;34.42;42.11
62847;BME280;49477;35.676;139.586;2023-08-17T11:41:31;100363.27;;;34.89;42.13
62847;BME280;49477;35.676;139.586;2023-08-17T11:44:01;100359.77;;;35.31;41.67
62847;BME280;49477;35.676;139.586;2023-08-17T11:46:33;100362.14;;;35.29;41.45
62847;BME280;49477;35.676;139.586;2023-08-17T11:49:02;100361.63;;;34.89;41.28
62847;BME280;49477;35.676;139.586;2023-08-17T11:51:32;100361.37;;;35.59;41.03
62847;BME280;49477;35.676;139.586;2023-08-17T11:54:02;100361.21;;;35.07;40.96
62847;BME280;49477;35.676;139.586;2023-08-17T11:56:31;100359.57;;;35.41;41.32
62847;BME280;49477;35.676;139.586;2023-08-17T11:59:09;100359.00;;;35.26;41.16
62847;BME280;49477;35.676;139.586;2023-08-17T12:01:39;100361.41;;;35.67;41.17
62847;BME280;49477;35.676;139.586;2023-08-17T12:04:10;100358.61;;;35.35;41.35
62847;BME280;49477;35.676;139.586;2023-08-17T12:06:44;100363.22;;;35.47;41.25
62847;BME280;49477;35.676;139.586;2023-08-17T12:09:13;100359.05;;;35.58;41.21
62847;BME280;49477;35.676;139.586;2023-08-17T12:11:45;100354.16;;;35.52;41.02
62847;BME280;49477;35.676;139.586;2023-08-17T12:14:15;100352.85;;;35.39;41.21
62847;BME280;49477;35.676;139.586;2023-08-17T12:16:48;100352.43;;;35.46;41.30
62847;BME280;49477;35.676;139.586;2023-08-17T12:19:20;100355.53;;;35.47;41.19
62847;BME280;49477;35.676;139.586;2023-08-17T12:21:50;100352.52;;;35.79;41.25
62847;BME280;49477;35.676;139.586;2023-08-17T12:24:20;100360.18;;;35.49;41.18
62847;BME280;49477;35.676;139.586;2023-08-17T12:26:52;100360.33;;;35.60;41.32
62847;BME280;49477;35.676;139.586;2023-08-17T12:29:21;100366.57;;;35.50;41.33
62847;BME280;49477;35.676;139.586;2023-08-17T12:31:53;100364.86;;;35.76;41.13
62847;BME280;49477;35.676;139.586;2023-08-17T12:34:23;100369.67;;;35.58;41.08
62847;BME280;49477;35.676;139.586;2023-08-17T12:36:54;100369.18;;;35.48;41.13
62847;BME280;49477;35.676;139.586;2023-08-17T12:39:23;100369.56;;;35.40;41.26
62847;BME280;49477;35.676;139.586;2023-08-17T12:41:53;100368.23;;;35.39;41.24
62847;BME280;49477;35.676;139.586;2023-08-17T12:44:24;100372.45;;;35.27;41.35
62847;BME280;49477;35.676;139.586;2023-08-17T12:46:58;100374.69;;;35.38;41.47